Choccolocco, AL (36254)

10:35 AM CST on November 24, 2014 (GMT -0600)
Choccolocco Community | Change Station
CLOSE
Current Station
Personal Weather Station
Location: Anniston, AL
Elevation: 865 ft
Nearby Weather Stations

Elev 865 ft 33.69 °N, 85.72 °W | Updated 19 seconds ago

Partly Cloudy
Partly Cloudy
67.8 °F
Feels Like 67.8 °F
N
6.0
Wind Variable Wind from SSE
Gusts 10.0 mph

Today
High -- | Low -- °F
--% Chance of Precip.
Yesterday
High -- | Low -- °F
Precip. -- in
6:22 AM 4:35 PM
Waxing Crescent, 6% visible
Pressure 29.81 in
Visibility 10.0 miles
Clouds Few 2600 ft
Scattered Clouds 3300 ft
Dew Point 56 °F
Humidity 67%
Rainfall 0.00 in
Snow Depth Not available.
UV 3 out of 12
Pollen 1.80 out of 12
Air Quality Not available.
Flu Activity Not available.
METAR KANB 241553Z AUTO 25014G22KT 10SM FEW026 SCT033 20/13 A2982 RMK AO2 SLP093 T02000133

More Conditions Fewer Conditions

Pressure 29.81 in
Visibility 10.0 miles
Clouds Few 2600 ft
Scattered Clouds 3300 ft
Dew Point 56 °F
Humidity 67%
Rainfall 0.00 in
Snow Depth Not available.
UV 3 out of 12
Pollen 1.80 out of 12
Air Quality Not available.
Flu Activity Not available.
METAR KANB 241553Z AUTO 25014G22KT 10SM FEW026 SCT033 20/13 A2982 RMK AO2 SLP093 T02000133

More Conditions Fewer Conditions

10-Day Weather Forecast

Almanac

Astronomy

Nov. 24, 2014 Rise Set
Actual Time
Civil Twilight
Nautical Twilight
Astronomical Twilight
Moon
Length of Visible Light
Length of Day
Tomorrow will be .
, % of the Moon is Illuminated

Today's Extremes

State Highs State Lows

Community

WunderPhotos

Upload Photos

1,773,366 photos uploaded!

WunderBlogs® & News

Nearby

Air Quality

  Air Quality AQ Index Pollutant
Not available.

Snow Depth

Station Depth Elevation

Earthquake Activity

City Distance Mag. Time & Date
Minimum magnitude displayed is 2.5.

Coastal Water Temperatures

Place Temperature

Nearby Weather Stations